createdAt,value
2022-08-07T00:01:44.053Z,15.28
2022-08-07T00:04:31.184Z,15.28
2022-08-07T00:07:01.647Z,15.27
2022-08-07T00:09:35.936Z,15.28
2022-08-07T00:12:07.812Z,15.29
2022-08-07T00:14:44.193Z,15.30
2022-08-07T00:17:16.881Z,15.31
2022-08-07T00:20:01.379Z,15.30
2022-08-07T00:22:35.601Z,15.30
2022-08-07T00:25:16.458Z,15.31
2022-08-07T00:27:53.199Z,15.32
2022-08-07T00:30:27.604Z,15.34
2022-08-07T00:33:00.011Z,15.34
2022-08-07T00:35:32.098Z,15.35
2022-08-07T00:38:06.373Z,15.36
2022-08-07T00:40:40.474Z,15.37
2022-08-07T00:44:00.694Z,15.37
2022-08-07T00:46:05.140Z,15.36
2022-08-07T00:48:42.383Z,15.37
2022-08-07T00:51:13.003Z,15.37
2022-08-07T00:53:50.245Z,15.39
2022-08-07T00:56:23.018Z,15.41
2022-08-07T00:59:01.459Z,15.38
2022-08-07T01:01:44.012Z,15.34
2022-08-07T01:04:24.820Z,15.32
2022-08-07T01:06:57.734Z,15.30
2022-08-07T01:10:05.090Z,15.27
2022-08-07T01:12:30.221Z,15.26
2022-08-07T01:15:04.235Z,15.26
2022-08-07T01:17:37.559Z,15.21
2022-08-07T01:20:16.668Z,15.15
2022-08-07T01:23:00.522Z,15.16
2022-08-07T01:25:55.626Z,15.14
2022-08-07T01:28:27.572Z,15.11
2022-08-07T01:31:00.135Z,15.08
2022-08-07T01:33:55.105Z,15.08
2022-08-07T01:36:33.248Z,15.08
2022-08-07T01:39:09.775Z,15.08
2022-08-07T01:41:40.812Z,15.08
2022-08-07T01:44:25.871Z,15.09
2022-08-07T01:46:57.172Z,15.09
2022-08-07T01:49:34.638Z,15.09
2022-08-07T01:52:07.830Z,15.09
2022-08-07T01:54:43.199Z,15.11
2022-08-07T01:57:30.877Z,15.11
2022-08-07T02:00:12.856Z,15.12
2022-08-07T02:03:19.248Z,15.12
2022-08-07T02:05:59.828Z,15.13
2022-08-07T02:08:35.584Z,15.15
2022-08-07T02:11:10.714Z,15.15
2022-08-07T02:14:02.952Z,15.15
2022-08-07T02:16:33.949Z,15.15
2022-08-07T02:20:04.213Z,15.14
2022-08-07T02:22:01.687Z,15.12
2022-08-07T02:24:33.956Z,15.11
2022-08-07T02:27:06.908Z,15.10
2022-08-07T02:29:48.592Z,15.10
2022-08-07T02:32:26.982Z,15.08
2022-08-07T02:35:09.050Z,15.06
2022-08-07T02:37:44.020Z,15.06
2022-08-07T02:40:30.432Z,15.05
2022-08-07T02:43:08.957Z,15.05
2022-08-07T02:46:00.952Z,15.05
2022-08-07T02:48:34.946Z,15.01
2022-08-07T02:51:14.283Z,15.02
2022-08-07T02:54:01.987Z,15.00
2022-08-07T02:56:35.065Z,15.00
2022-08-07T02:59:10.687Z,14.98
2022-08-07T03:01:47.264Z,14.95
2022-08-07T03:04:24.580Z,14.93
2022-08-07T03:06:55.973Z,14.90
2022-08-07T03:09:43.897Z,14.86
2022-08-07T03:12:22.219Z,14.79
2022-08-07T03:14:56.271Z,14.73
2022-08-07T03:17:28.637Z,14.66
2022-08-07T03:20:01.009Z,14.61
2022-08-07T03:22:34.285Z,14.61
2022-08-07T03:25:11.352Z,14.60
2022-08-07T03:28:09.025Z,14.54
2022-08-07T03:30:38.384Z,14.44
2022-08-07T03:33:10.554Z,14.35
2022-08-07T03:35:50.283Z,14.27
2022-08-07T03:38:29.589Z,14.20
2022-08-07T03:41:03.361Z,14.15
2022-08-07T03:43:36.150Z,14.12
2022-08-07T03:46:10.487Z,14.07
2022-08-07T03:49:02.394Z,14.03
2022-08-07T03:51:47.518Z,13.99
2022-08-07T03:54:35.377Z,13.97
2022-08-07T03:58:34.774Z,13.91
2022-08-07T04:00:04.548Z,13.88
2022-08-07T04:02:35.539Z,13.84
2022-08-07T04:05:13.118Z,13.81
2022-08-07T04:07:49.734Z,13.76
2022-08-07T04:10:21.827Z,13.71
2022-08-07T04:12:56.643Z,13.71
2022-08-07T04:15:29.400Z,13.73
2022-08-07T04:18:57.425Z,13.73
2022-08-07T04:20:54.845Z,13.72
2022-08-07T04:23:43.891Z,13.72
2022-08-07T04:26:21.820Z,13.76
2022-08-07T04:28:54.034Z,13.77
2022-08-07T04:31:39.031Z,13.77
2022-08-07T04:34:24.193Z,13.79
2022-08-07T04:37:08.141Z,13.79
2022-08-07T04:39:50.775Z,13.83
2022-08-07T04:42:28.745Z,13.87
2022-08-07T04:45:02.912Z,13.87
2022-08-07T04:47:57.211Z,13.91
2022-08-07T04:50:38.741Z,13.98
2022-08-07T04:53:40.188Z,14.05
2022-08-07T04:58:24.429Z,14.11
2022-08-07T05:00:10.859Z,14.18
2022-08-07T05:02:16.902Z,14.28
2022-08-07T05:05:01.382Z,14.38
2022-08-07T05:07:48.388Z,14.47
2022-08-07T05:10:29.268Z,14.56
2022-08-07T05:14:44.943Z,14.64
2022-08-07T05:15:57.547Z,14.72
2022-08-07T05:18:32.093Z,14.80
2022-08-07T05:21:05.732Z,14.87
2022-08-07T05:23:40.944Z,14.95
2022-08-07T05:26:23.717Z,15.02
2022-08-07T05:28:57.682Z,15.11
2022-08-07T05:31:34.536Z,15.18
2022-08-07T05:34:11.055Z,15.26
2022-08-07T05:36:49.149Z,15.34
2022-08-07T05:40:05.414Z,15.44
2022-08-07T05:42:33.323Z,15.54
2022-08-07T05:45:26.127Z,15.62
2022-08-07T05:48:03.819Z,15.72
2022-08-07T05:50:35.975Z,15.83
2022-08-07T05:54:11.924Z,15.95
2022-08-07T05:56:05.734Z,16.17
2022-08-07T05:58:39.061Z,16.35
2022-08-07T06:01:14.081Z,16.43
2022-08-07T06:03:57.200Z,16.48
2022-08-07T06:06:33.737Z,16.56
2022-08-07T06:09:05.374Z,16.63
2022-08-07T06:11:37.924Z,16.70
2022-08-07T06:14:11.677Z,16.80
2022-08-07T06:16:56.377Z,16.86
2022-08-07T06:19:49.890Z,16.95
2022-08-07T06:22:23.982Z,17.04
2022-08-07T06:25:02.968Z,17.13
2022-08-07T06:27:59.926Z,17.22
2022-08-07T06:30:36.090Z,17.29
2022-08-07T06:33:15.762Z,17.37
2022-08-07T06:36:06.694Z,17.45
2022-08-07T06:38:39.546Z,17.51
2022-08-07T06:42:02.318Z,17.52
2022-08-07T06:44:25.134Z,17.56
2022-08-07T06:47:10.577Z,17.63
2022-08-07T06:49:50.984Z,17.68
2022-08-07T06:52:31.727Z,17.76
2022-08-07T06:55:33.377Z,17.83
2022-08-07T06:58:04.966Z,17.91
2022-08-07T07:00:42.666Z,17.98
2022-08-07T07:03:17.216Z,18.05
2022-08-07T07:06:05.103Z,18.11
2022-08-07T07:08:39.935Z,18.18
2022-08-07T07:12:08.357Z,18.25
2022-08-07T07:14:09.910Z,18.31
2022-08-07T07:16:51.124Z,18.38
2022-08-07T07:19:55.547Z,18.43
2022-08-07T07:22:36.724Z,18.40
2022-08-07T07:26:35.369Z,18.37
2022-08-07T07:28:42.537Z,18.41
2022-08-07T07:31:08.138Z,18.49
2022-08-07T07:33:41.838Z,18.58
2022-08-07T07:36:17.418Z,18.65
2022-08-07T07:38:50.500Z,18.71
2022-08-07T07:41:30.876Z,18.75
2022-08-07T07:44:25.906Z,18.83
2022-08-07T07:47:16.072Z,18.89
2022-08-07T07:50:32.645Z,18.94
2022-08-07T07:52:47.368Z,18.98
2022-08-07T07:55:21.678Z,19.04
2022-08-07T07:57:58.465Z,19.12
2022-08-07T08:00:34.475Z,19.15
2022-08-07T08:03:16.770Z,19.22
2022-08-07T08:06:02.530Z,19.28
2022-08-07T08:08:37.042Z,19.33
2022-08-07T08:11:16.005Z,19.38
2022-08-07T08:13:53.713Z,19.43
2022-08-07T08:16:29.866Z,19.50
2022-08-07T08:19:09.945Z,19.54
2022-08-07T08:22:07.721Z,19.56
2022-08-07T08:25:09.470Z,19.60
2022-08-07T08:27:57.589Z,19.67
2022-08-07T08:30:37.588Z,19.71
2022-08-07T08:33:24.023Z,19.74
2022-08-07T08:35:56.726Z,19.78
2022-08-07T08:38:38.142Z,19.83
2022-08-07T08:41:25.932Z,19.87
2022-08-07T08:44:09.429Z,19.92
2022-08-07T08:46:49.232Z,19.95
2022-08-07T08:49:33.116Z,19.93
2022-08-07T08:52:32.162Z,19.94
2022-08-07T08:55:53.241Z,19.95
2022-08-07T08:58:20.410Z,19.93
2022-08-07T09:01:14.720Z,19.87
2022-08-07T09:03:56.750Z,19.84
2022-08-07T09:06:40.304Z,19.89
2022-08-07T09:09:33.080Z,19.93
2022-08-07T09:12:31.196Z,19.95
2022-08-07T09:16:22.378Z,20.00
2022-08-07T09:18:23.593Z,20.07
2022-08-07T09:21:05.001Z,20.16
2022-08-07T09:24:33.627Z,20.20
2022-08-07T09:26:50.941Z,20.20
2022-08-07T09:30:04.319Z,20.21
2022-08-07T09:32:43.391Z,20.26
2022-08-07T09:36:03.506Z,20.27
2022-08-07T09:38:26.484Z,20.27
2022-08-07T09:41:07.264Z,20.26
2022-08-07T09:44:06.115Z,20.29
2022-08-07T09:47:52.127Z,20.35
2022-08-07T09:50:02.860Z,20.40
2022-08-07T09:52:52.211Z,20.42
2022-08-07T09:56:02.684Z,20.44
2022-08-07T09:58:51.380Z,20.47
2022-08-07T10:01:52.185Z,20.51
2022-08-07T10:04:57.344Z,20.56
2022-08-07T10:07:52.287Z,20.49
2022-08-07T10:11:00.246Z,20.42
2022-08-07T10:14:01.360Z,20.39
2022-08-07T10:16:55.286Z,20.37
2022-08-07T10:19:41.891Z,20.30
2022-08-07T10:22:33.876Z,20.36
2022-08-07T10:25:20.915Z,20.44
2022-08-07T10:28:19.957Z,20.57
2022-08-07T10:31:06.039Z,20.67
2022-08-07T10:34:15.407Z,20.72
2022-08-07T10:37:03.975Z,20.76
2022-08-07T10:40:03.295Z,20.86
2022-08-07T10:42:46.631Z,20.88
2022-08-07T10:45:57.384Z,20.89
2022-08-07T10:48:37.670Z,20.92
2022-08-07T10:51:16.442Z,21.03
2022-08-07T10:54:14.673Z,21.09
2022-08-07T10:56:58.169Z,21.19
2022-08-07T10:59:47.242Z,21.29
2022-08-07T11:02:34.336Z,21.36
2022-08-07T11:05:44.840Z,21.43
2022-08-07T11:08:34.599Z,21.54
2022-08-07T11:11:10.095Z,21.63
2022-08-07T11:14:44.523Z,21.67
2022-08-07T11:16:39.042Z,21.76
2022-08-07T11:19:15.190Z,21.86
2022-08-07T11:22:03.371Z,21.94
2022-08-07T11:24:45.633Z,22.02
2022-08-07T11:28:02.036Z,22.09
2022-08-07T11:30:41.404Z,22.16
2022-08-07T11:33:18.529Z,22.22
2022-08-07T11:36:20.548Z,22.30
2022-08-07T11:39:07.298Z,22.41
2022-08-07T11:42:01.812Z,22.41
2022-08-07T11:44:52.666Z,22.46
2022-08-07T11:47:56.430Z,22.51
2022-08-07T11:50:58.007Z,22.58
2022-08-07T11:53:43.380Z,22.46
2022-08-07T11:56:53.096Z,22.28
2022-08-07T12:00:11.186Z,22.27
2022-08-07T12:03:44.910Z,22.42
2022-08-07T12:06:51.533Z,22.54
2022-08-07T12:09:37.641Z,22.65
2022-08-07T12:12:12.154Z,22.75
2022-08-07T12:14:53.873Z,22.80
2022-08-07T12:17:34.286Z,22.94
2022-08-07T12:20:30.051Z,23.12
2022-08-07T12:23:21.551Z,23.18
2022-08-07T12:26:29.212Z,23.15
2022-08-07T12:29:08.363Z,23.23
2022-08-07T12:32:04.065Z,23.35
2022-08-07T12:34:37.844Z,23.32
2022-08-07T12:37:16.525Z,23.46
2022-08-07T12:39:57.499Z,23.67
2022-08-07T12:42:31.934Z,23.80
2022-08-07T12:45:08.245Z,23.92
2022-08-07T12:47:49.167Z,24.07
2022-08-07T12:50:34.440Z,24.16
2022-08-07T12:53:17.745Z,24.20
2022-08-07T12:56:02.354Z,24.24
2022-08-07T12:58:39.500Z,24.41
2022-08-07T13:01:32.633Z,24.29
2022-08-07T13:04:34.242Z,24.30
2022-08-07T13:08:11.975Z,24.38
2022-08-07T13:10:43.999Z,24.54
2022-08-07T13:13:50.282Z,24.72
2022-08-07T13:16:30.650Z,24.83
2022-08-07T13:19:11.497Z,25.01
2022-08-07T13:22:04.004Z,25.19
2022-08-07T13:24:52.441Z,25.29
2022-08-07T13:28:05.565Z,25.36
2022-08-07T13:30:40.145Z,25.65
2022-08-07T13:34:31.595Z,25.92
2022-08-07T13:36:31.608Z,26.05
2022-08-07T13:39:28.372Z,25.80
2022-08-07T13:42:10.497Z,25.89
2022-08-07T13:44:43.202Z,25.99
2022-08-07T13:48:06.221Z,26.07
2022-08-07T13:50:32.956Z,26.02
2022-08-07T13:53:23.892Z,26.18
2022-08-07T13:55:57.511Z,26.37
2022-08-07T13:58:50.394Z,26.63
2022-08-07T14:01:33.247Z,26.87
2022-08-07T14:04:24.256Z,27.10
2022-08-07T14:07:06.208Z,27.12
2022-08-07T14:10:03.043Z,27.08
2022-08-07T14:12:49.176Z,27.24
2022-08-07T14:15:32.025Z,27.46
2022-08-07T14:18:23.774Z,27.71
2022-08-07T14:21:21.131Z,28.00
2022-08-07T14:24:03.697Z,28.25
2022-08-07T14:26:39.291Z,28.28
2022-08-07T14:32:08.194Z,28.62
2022-08-07T14:37:39.271Z,29.41
2022-08-07T14:40:26.615Z,29.70
2022-08-07T14:43:55.186Z,29.92
2022-08-07T14:52:03.779Z,30.45
2022-08-07T14:54:35.716Z,31.11
2022-08-07T14:57:11.300Z,31.52
2022-08-07T15:02:56.922Z,32.12
2022-08-07T15:05:32.880Z,32.40
2022-08-07T15:08:08.905Z,32.32
2022-08-07T15:10:58.783Z,32.86
2022-08-07T15:19:19.938Z,34.67
2022-08-07T15:22:22.112Z,34.70
2022-08-07T15:25:17.285Z,35.24
2022-08-07T15:28:33.092Z,35.61
2022-08-07T15:33:43.050Z,37.06
2022-08-07T15:36:15.182Z,38.07
2022-08-07T15:39:10.624Z,39.07
2022-08-07T15:42:45.653Z,39.74
2022-08-07T15:48:01.468Z,38.46
2022-08-07T15:53:53.162Z,35.06
2022-08-07T15:56:33.223Z,33.46
2022-08-07T15:59:06.805Z,32.02
2022-08-07T16:02:01.770Z,30.48
2022-08-07T16:04:36.940Z,29.86
2022-08-07T16:08:29.139Z,29.29
2022-08-07T16:10:14.976Z,28.80
2022-08-07T16:13:05.507Z,28.39
2022-08-07T16:15:58.958Z,27.72
2022-08-07T16:18:50.782Z,27.13
2022-08-07T16:22:01.419Z,26.99
2022-08-07T16:24:36.568Z,26.87
2022-08-07T16:27:18.287Z,26.78
2022-08-07T16:30:32.033Z,26.68
2022-08-07T16:34:06.527Z,26.46
2022-08-07T16:36:22.172Z,26.23
2022-08-07T16:39:40.584Z,25.88
2022-08-07T16:42:36.593Z,25.64
2022-08-07T16:49:04.213Z,25.37
2022-08-07T16:51:54.227Z,25.20
2022-08-07T16:54:55.345Z,25.17
2022-08-07T16:58:01.492Z,25.06
2022-08-07T17:00:34.643Z,24.79
2022-08-07T17:03:17.860Z,24.58
2022-08-07T17:06:29.333Z,24.44
2022-08-07T17:09:15.839Z,24.17
2022-08-07T17:12:35.973Z,24.02
2022-08-07T17:15:09.007Z,23.82
2022-08-07T17:17:50.124Z,23.67
2022-08-07T17:20:32.833Z,23.53
2022-08-07T17:23:18.342Z,23.42
2022-08-07T17:26:23.486Z,23.31
2022-08-07T17:29:09.584Z,23.25
2022-08-07T17:32:28.365Z,23.18
2022-08-07T17:35:49.853Z,23.03
2022-08-07T17:38:11.333Z,22.94
2022-08-07T17:41:12.407Z,22.81
2022-08-07T17:44:02.638Z,22.57
2022-08-07T17:46:44.199Z,22.49
2022-08-07T17:49:23.809Z,22.38
2022-08-07T17:52:01.134Z,22.24
2022-08-07T17:54:53.494Z,22.16
2022-08-07T17:57:32.076Z,22.08
2022-08-07T18:00:27.468Z,22.02
2022-08-07T18:03:18.273Z,21.98
2022-08-07T18:06:01.773Z,21.94
2022-08-07T18:09:00.621Z,21.91
2022-08-07T18:12:12.002Z,21.75
2022-08-07T18:14:37.667Z,21.54
2022-08-07T18:18:47.013Z,21.50
2022-08-07T18:21:03.599Z,21.34
2022-08-07T18:23:43.069Z,21.20
2022-08-07T18:26:26.828Z,21.08
2022-08-07T18:30:04.263Z,21.05
2022-08-07T18:32:25.646Z,20.94
2022-08-07T18:35:17.564Z,20.81
2022-08-07T18:38:59.083Z,20.78
2022-08-07T18:41:16.863Z,20.64
2022-08-07T18:44:01.492Z,20.51
2022-08-07T18:46:42.887Z,20.36
2022-08-07T18:50:35.235Z,20.24
2022-08-07T18:52:54.171Z,20.17
2022-08-07T18:55:42.346Z,20.06
2022-08-07T18:58:57.963Z,19.98
2022-08-07T19:02:18.291Z,19.87
2022-08-07T19:04:57.712Z,19.81
2022-08-07T19:07:36.067Z,19.73
2022-08-07T19:10:31.393Z,19.67
2022-08-07T19:13:10.154Z,19.62
2022-08-07T19:16:05.634Z,19.61
2022-08-07T19:18:46.466Z,19.60
2022-08-07T19:21:44.071Z,19.60
2022-08-07T19:24:30.669Z,19.59
2022-08-07T19:28:29.401Z,19.57
2022-08-07T19:30:56.821Z,19.48
2022-08-07T19:32:59.657Z,19.45
2022-08-07T19:35:33.758Z,19.38
2022-08-07T19:38:16.643Z,19.35
2022-08-07T19:40:51.525Z,19.31
2022-08-07T19:43:50.075Z,19.25
2022-08-07T19:46:19.314Z,19.21
2022-08-07T19:48:54.697Z,19.17
2022-08-07T19:51:52.343Z,19.13
2022-08-07T19:54:31.146Z,19.07
2022-08-07T19:58:04.683Z,19.02
2022-08-07T20:00:10.534Z,18.96
2022-08-07T20:02:51.557Z,18.93
2022-08-07T20:05:28.680Z,18.90
2022-08-07T20:08:05.633Z,18.88
2022-08-07T20:10:55.074Z,18.81
2022-08-07T20:13:41.885Z,18.75
2022-08-07T20:16:34.923Z,18.73
2022-08-07T20:19:10.471Z,18.70
2022-08-07T20:21:47.564Z,18.65
2022-08-07T20:24:22.910Z,18.62
2022-08-07T20:26:57.195Z,18.58
2022-08-07T20:29:48.965Z,18.54
2022-08-07T20:32:40.048Z,18.49
2022-08-07T20:35:15.809Z,18.42
2022-08-07T20:37:57.659Z,18.39
2022-08-07T20:40:34.879Z,18.35
2022-08-07T20:43:09.743Z,18.30
2022-08-07T20:46:25.666Z,18.25
2022-08-07T20:49:54.319Z,18.22
2022-08-07T20:51:40.303Z,18.17
2022-08-07T20:54:15.299Z,18.12
2022-08-07T20:57:04.507Z,18.09
2022-08-07T21:00:07.389Z,18.07
2022-08-07T21:05:52.802Z,18.01
2022-08-07T21:08:39.239Z,17.97
2022-08-07T21:11:15.580Z,17.96
2022-08-07T21:14:16.835Z,17.96
2022-08-07T21:17:06.490Z,17.95
2022-08-07T21:19:51.218Z,17.92
2022-08-07T21:22:36.500Z,17.90
2022-08-07T21:25:13.377Z,17.87
2022-08-07T21:28:07.857Z,17.84
2022-08-07T21:30:56.496Z,17.84
2022-08-07T21:33:41.696Z,17.85
2022-08-07T21:36:31.391Z,17.84
2022-08-07T21:39:45.109Z,17.84
2022-08-07T21:42:42.829Z,17.84
2022-08-07T21:46:08.867Z,17.84
2022-08-07T21:48:27.662Z,17.83
2022-08-07T21:51:19.836Z,17.83
2022-08-07T21:54:10.671Z,17.79
2022-08-07T21:56:48.989Z,17.79
2022-08-07T22:00:02.685Z,17.80
2022-08-07T22:02:32.207Z,17.78
2022-08-07T22:05:07.206Z,17.76
2022-08-07T22:07:58.787Z,17.75
2022-08-07T22:10:35.612Z,17.73
2022-08-07T22:13:13.572Z,17.70
2022-08-07T22:16:42.750Z,17.64
2022-08-07T22:18:48.431Z,17.62
2022-08-07T22:21:22.055Z,17.60
2022-08-07T22:23:58.111Z,17.59
2022-08-07T22:26:44.188Z,17.58
2022-08-07T22:29:37.786Z,17.55
2022-08-07T22:32:21.195Z,17.55
2022-08-07T22:34:57.362Z,17.55
2022-08-07T22:38:04.190Z,17.55
2022-08-07T22:40:41.135Z,17.52
2022-08-07T22:43:14.534Z,17.52
2022-08-07T22:46:21.341Z,17.51
2022-08-07T22:49:09.506Z,17.48
2022-08-07T22:52:12.998Z,17.46
2022-08-07T22:55:30.991Z,17.43
2022-08-07T22:58:12.020Z,17.42
2022-08-07T23:00:55.166Z,17.39
2022-08-07T23:03:57.961Z,17.38
2022-08-07T23:06:59.021Z,17.35
2022-08-07T23:10:06.535Z,17.33
2022-08-07T23:12:46.912Z,17.30
2022-08-07T23:16:06.515Z,17.26
2022-08-07T23:18:32.327Z,17.20
2022-08-07T23:21:29.904Z,17.15
2022-08-07T23:24:21.123Z,17.12
2022-08-07T23:27:07.744Z,17.12
2022-08-07T23:30:38.667Z,17.10
2022-08-07T23:34:35.327Z,17.08
2022-08-07T23:36:35.729Z,17.03
2022-08-07T23:39:14.101Z,16.98
2022-08-07T23:42:04.050Z,16.94
2022-08-07T23:44:54.079Z,16.96
2022-08-07T23:47:42.292Z,16.96
2022-08-07T23:50:33.589Z,16.96
2022-08-07T23:53:16.733Z,16.95
2022-08-07T23:55:58.223Z,16.94
2022-08-07T23:58:45.198Z,16.91
